sensor_id;sensor_type;location;lat;lon;timestamp;pressure;altitude;pressure_sealevel;temperature;humidity
42587;BME280;28216;53.362;-6.288;2023-05-03T00:02:03;102234.00;;;12.71;100.00
42587;BME280;28216;53.362;-6.288;2023-05-03T00:04:29;102231.78;;;12.67;100.00
42587;BME280;28216;53.362;-6.288;2023-05-03T00:06:56;102224.72;;;12.67;100.00
42587;BME280;28216;53.362;-6.288;2023-05-03T00:09:22;102222.75;;;12.60;100.00
42587;BME280;28216;53.362;-6.288;2023-05-03T00:11:48;102234.50;;;12.56;100.00
42587;BME280;28216;53.362;-6.288;2023-05-03T00:14:13;102232.72;;;12.56;100.00
42587;BME280;28216;53.362;-6.288;2023-05-03T00:16:39;102238.41;;;12.61;100.00
42587;BME280;28216;53.362;-6.288;2023-05-03T00:19:04;102231.47;;;12.60;100.00
42587;BME280;28216;53.362;-6.288;2023-05-03T00:21:32;102227.88;;;12.61;100.00
42587;BME280;28216;53.362;-6.288;2023-05-03T00:23:58;102233.13;;;12.61;100.00
42587;BME280;28216;53.362;-6.288;2023-05-03T00:26:24;102229.81;;;12.59;100.00
42587;BME280;28216;53.362;-6.288;2023-05-03T00:28:51;102232.06;;;12.64;100.00
42587;BME280;28216;53.362;-6.288;2023-05-03T00:31:16;102228.72;;;12.62;100.00
42587;BME280;28216;53.362;-6.288;2023-05-03T00:33:44;102237.31;;;12.64;100.00
42587;BME280;28216;53.362;-6.288;2023-05-03T00:36:11;102233.59;;;12.66;100.00
42587;BME280;28216;53.362;-6.288;2023-05-03T00:38:38;102241.88;;;12.62;100.00
42587;BME280;28216;53.362;-6.288;2023-05-03T00:41:04;102231.09;;;12.65;100.00
42587;BME280;28216;53.362;-6.288;2023-05-03T00:43:31;102232.75;;;12.66;100.00
42587;BME280;28216;53.362;-6.288;2023-05-03T00:45:58;102230.00;;;12.67;100.00
42587;BME280;28216;53.362;-6.288;2023-05-03T00:48:24;102228.75;;;12.71;100.00
42587;BME280;28216;53.362;-6.288;2023-05-03T00:50:50;102229.59;;;12.72;100.00
42587;BME280;28216;53.362;-6.288;2023-05-03T00:53:18;102226.81;;;12.73;100.00
42587;BME280;28216;53.362;-6.288;2023-05-03T00:55:44;102227.38;;;12.77;100.00
42587;BME280;28216;53.362;-6.288;2023-05-03T00:58:09;102219.19;;;12.70;100.00
42587;BME280;28216;53.362;-6.288;2023-05-03T01:00:36;102214.34;;;12.66;100.00
42587;BME280;28216;53.362;-6.288;2023-05-03T01:03:01;102218.34;;;12.70;100.00
42587;BME280;28216;53.362;-6.288;2023-05-03T01:05:31;102218.09;;;12.73;100.00
42587;BME280;28216;53.362;-6.288;2023-05-03T01:08:10;102220.16;;;12.79;100.00
42587;BME280;28216;53.362;-6.288;2023-05-03T01:11:01;102214.47;;;12.84;100.00
42587;BME280;28216;53.362;-6.288;2023-05-03T01:16:11;102209.22;;;12.84;100.00
42587;BME280;28216;53.362;-6.288;2023-05-03T01:18:39;102209.78;;;12.78;100.00
42587;BME280;28216;53.362;-6.288;2023-05-03T01:21:09;102201.31;;;12.74;100.00
42587;BME280;28216;53.362;-6.288;2023-05-03T01:23:50;102203.13;;;12.73;100.00
42587;BME280;28216;53.362;-6.288;2023-05-03T01:26:23;102197.03;;;12.73;100.00
42587;BME280;28216;53.362;-6.288;2023-05-03T01:28:49;102195.22;;;12.73;100.00
42587;BME280;28216;53.362;-6.288;2023-05-03T01:31:20;102196.88;;;12.75;100.00
42587;BME280;28216;53.362;-6.288;2023-05-03T01:34:27;102194.81;;;12.78;100.00
42587;BME280;28216;53.362;-6.288;2023-05-03T01:36:58;102194.53;;;12.71;100.00
42587;BME280;28216;53.362;-6.288;2023-05-03T01:39:38;102193.28;;;12.76;100.00
42587;BME280;28216;53.362;-6.288;2023-05-03T01:42:06;102192.75;;;12.72;100.00
42587;BME280;28216;53.362;-6.288;2023-05-03T01:44:32;102194.53;;;12.71;100.00
42587;BME280;28216;53.362;-6.288;2023-05-03T01:47:00;102187.47;;;12.72;100.00
42587;BME280;28216;53.362;-6.288;2023-05-03T01:49:26;102189.81;;;12.75;100.00
42587;BME280;28216;53.362;-6.288;2023-05-03T01:51:52;102186.50;;;12.73;100.00
42587;BME280;28216;53.362;-6.288;2023-05-03T01:54:17;102186.38;;;12.75;100.00
42587;BME280;28216;53.362;-6.288;2023-05-03T01:56:43;102190.09;;;12.72;100.00
42587;BME280;28216;53.362;-6.288;2023-05-03T01:59:08;102187.88;;;12.67;100.00
42587;BME280;28216;53.362;-6.288;2023-05-03T02:01:34;102183.31;;;12.69;100.00
42587;BME280;28216;53.362;-6.288;2023-05-03T02:03:59;102176.41;;;12.68;100.00
42587;BME280;28216;53.362;-6.288;2023-05-03T02:06:25;102174.59;;;12.69;100.00
42587;BME280;28216;53.362;-6.288;2023-05-03T02:08:51;102169.31;;;12.69;100.00
42587;BME280;28216;53.362;-6.288;2023-05-03T02:11:16;102176.13;;;12.71;100.00
42587;BME280;28216;53.362;-6.288;2023-05-03T02:13:42;102171.53;;;12.73;100.00
42587;BME280;28216;53.362;-6.288;2023-05-03T02:16:07;102164.47;;;12.74;100.00
42587;BME280;28216;53.362;-6.288;2023-05-03T02:18:34;102171.97;;;12.79;100.00
42587;BME280;28216;53.362;-6.288;2023-05-03T02:20:59;102164.19;;;12.77;100.00
42587;BME280;28216;53.362;-6.288;2023-05-03T02:23:25;102170.03;;;12.71;100.00
42587;BME280;28216;53.362;-6.288;2023-05-03T02:25:51;102167.81;;;12.66;100.00
42587;BME280;28216;53.362;-6.288;2023-05-03T02:28:16;102160.19;;;12.63;100.00
42587;BME280;28216;53.362;-6.288;2023-05-03T02:30:42;102167.13;;;12.64;100.00
42587;BME280;28216;53.362;-6.288;2023-05-03T02:33:08;102162.09;;;12.61;100.00
42587;BME280;28216;53.362;-6.288;2023-05-03T02:35:33;102167.22;;;12.44;100.00
42587;BME280;28216;53.362;-6.288;2023-05-03T02:37:58;102157.81;;;12.51;100.00
42587;BME280;28216;53.362;-6.288;2023-05-03T02:40:24;102165.69;;;12.41;100.00
42587;BME280;28216;53.362;-6.288;2023-05-03T02:42:50;102166.66;;;12.50;100.00
42587;BME280;28216;53.362;-6.288;2023-05-03T02:45:16;102153.50;;;12.50;100.00
42587;BME280;28216;53.362;-6.288;2023-05-03T02:47:42;102157.09;;;12.49;100.00
42587;BME280;28216;53.362;-6.288;2023-05-03T02:50:07;102158.22;;;12.46;100.00
42587;BME280;28216;53.362;-6.288;2023-05-03T02:52:33;102162.22;;;12.40;100.00
42587;BME280;28216;53.362;-6.288;2023-05-03T02:54:58;102162.91;;;12.43;100.00
42587;BME280;28216;53.362;-6.288;2023-05-03T02:57:24;102151.56;;;12.42;100.00
42587;BME280;28216;53.362;-6.288;2023-05-03T02:59:50;102165.13;;;12.37;100.00
42587;BME280;28216;53.362;-6.288;2023-05-03T03:02:15;102152.78;;;12.28;100.00
42587;BME280;28216;53.362;-6.288;2023-05-03T03:04:41;102156.13;;;12.30;100.00
42587;BME280;28216;53.362;-6.288;2023-05-03T03:07:06;102157.91;;;12.30;100.00
42587;BME280;28216;53.362;-6.288;2023-05-03T03:09:32;102163.59;;;12.35;100.00
42587;BME280;28216;53.362;-6.288;2023-05-03T03:11:57;102164.16;;;12.38;100.00
42587;BME280;28216;53.362;-6.288;2023-05-03T03:14:23;102156.41;;;12.37;100.00
42587;BME280;28216;53.362;-6.288;2023-05-03T03:16:50;102161.81;;;12.35;100.00
42587;BME280;28216;53.362;-6.288;2023-05-03T03:19:16;102162.78;;;12.34;100.00
42587;BME280;28216;53.362;-6.288;2023-05-03T03:21:41;102149.75;;;12.33;100.00
42587;BME280;28216;53.362;-6.288;2023-05-03T03:24:07;102154.75;;;12.36;100.00
42587;BME280;28216;53.362;-6.288;2023-05-03T03:26:32;102153.22;;;12.33;100.00
42587;BME280;28216;53.362;-6.288;2023-05-03T03:28:58;102151.56;;;12.32;100.00
42587;BME280;28216;53.362;-6.288;2023-05-03T03:31:23;102155.28;;;12.30;100.00
42587;BME280;28216;53.362;-6.288;2023-05-03T03:33:50;102146.28;;;12.32;100.00
42587;BME280;28216;53.362;-6.288;2023-05-03T03:36:16;102153.22;;;12.33;100.00
42587;BME280;28216;53.362;-6.288;2023-05-03T03:38:41;102154.19;;;12.32;100.00
42587;BME280;28216;53.362;-6.288;2023-05-03T03:41:07;102145.75;;;12.29;100.00
42587;BME280;28216;53.362;-6.288;2023-05-03T03:43:33;102147.69;;;12.27;100.00
42587;BME280;28216;53.362;-6.288;2023-05-03T03:45:58;102142.97;;;12.30;100.00
42587;BME280;28216;53.362;-6.288;2023-05-03T03:48:24;102145.19;;;12.35;100.00
42587;BME280;28216;53.362;-6.288;2023-05-03T03:50:49;102138.69;;;12.39;100.00
42587;BME280;28216;53.362;-6.288;2023-05-03T03:53:15;102135.38;;;12.37;100.00
42587;BME280;28216;53.362;-6.288;2023-05-03T03:55:41;102146.56;;;12.39;100.00
42587;BME280;28216;53.362;-6.288;2023-05-03T03:58:07;102136.88;;;12.39;100.00
42587;BME280;28216;53.362;-6.288;2023-05-03T04:00:33;102137.84;;;12.38;100.00
42587;BME280;28216;53.362;-6.288;2023-05-03T04:02:59;102138.00;;;12.37;100.00
42587;BME280;28216;53.362;-6.288;2023-05-03T04:05:28;102139.25;;;12.43;100.00
42587;BME280;28216;53.362;-6.288;2023-05-03T04:07:53;102135.38;;;12.37;100.00
42587;BME280;28216;53.362;-6.288;2023-05-03T04:10:19;102131.50;;;12.41;100.00
42587;BME280;28216;53.362;-6.288;2023-05-03T04:12:45;102140.91;;;12.44;100.00
42587;BME280;28216;53.362;-6.288;2023-05-03T04:15:10;102133.28;;;12.40;100.00
42587;BME280;28216;53.362;-6.288;2023-05-03T04:17:36;102129.00;;;12.39;100.00
42587;BME280;28216;53.362;-6.288;2023-05-03T04:20:05;102129.13;;;12.38;100.00
42587;BME280;28216;53.362;-6.288;2023-05-03T04:22:35;102128.59;;;12.44;100.00
42587;BME280;28216;53.362;-6.288;2023-05-03T04:25:02;102133.72;;;12.46;100.00
42587;BME280;28216;53.362;-6.288;2023-05-03T04:27:28;102124.44;;;12.41;100.00
42587;BME280;28216;53.362;-6.288;2023-05-03T04:29:54;102128.72;;;12.43;100.00
42587;BME280;28216;53.362;-6.288;2023-05-03T04:32:19;102136.19;;;12.47;100.00
42587;BME280;28216;53.362;-6.288;2023-05-03T04:34:48;102140.34;;;12.50;100.00
42587;BME280;28216;53.362;-6.288;2023-05-03T04:37:15;102139.94;;;12.45;100.00
42587;BME280;28216;53.362;-6.288;2023-05-03T04:39:41;102139.66;;;12.48;100.00
42587;BME280;28216;53.362;-6.288;2023-05-03T04:42:07;102149.34;;;12.47;100.00
42587;BME280;28216;53.362;-6.288;2023-05-03T04:44:33;102146.72;;;12.47;100.00
42587;BME280;28216;53.362;-6.288;2023-05-03T04:46:58;102142.84;;;12.41;100.00
42587;BME280;28216;53.362;-6.288;2023-05-03T04:49:24;102147.00;;;12.44;100.00
42587;BME280;28216;53.362;-6.288;2023-05-03T04:51:49;102142.84;;;12.41;100.00
42587;BME280;28216;53.362;-6.288;2023-05-03T04:54:15;102143.81;;;12.31;100.00
42587;BME280;28216;53.362;-6.288;2023-05-03T04:56:40;102152.25;;;12.34;100.00
42587;BME280;28216;53.362;-6.288;2023-05-03T04:59:06;102152.53;;;12.31;100.00
42587;BME280;28216;53.362;-6.288;2023-05-03T05:01:31;102156.09;;;12.21;100.00
42587;BME280;28216;53.362;-6.288;2023-05-03T05:03:57;102152.66;;;12.20;100.00
42587;BME280;28216;53.362;-6.288;2023-05-03T05:06:22;102152.38;;;12.23;100.00
42587;BME280;28216;53.362;-6.288;2023-05-03T05:08:49;102148.06;;;12.13;100.00
42587;BME280;28216;53.362;-6.288;2023-05-03T05:11:15;102152.09;;;12.26;100.00
42587;BME280;28216;53.362;-6.288;2023-05-03T05:13:40;102156.66;;;12.24;100.00
42587;BME280;28216;53.362;-6.288;2023-05-03T05:16:06;102155.97;;;12.22;100.00
42587;BME280;28216;53.362;-6.288;2023-05-03T05:18:31;102151.97;;;12.28;100.00
42587;BME280;28216;53.362;-6.288;2023-05-03T05:20:57;102148.63;;;12.26;100.00
42587;BME280;28216;53.362;-6.288;2023-05-03T05:23:22;102152.25;;;12.34;100.00
42587;BME280;28216;53.362;-6.288;2023-05-03T05:25:48;102157.53;;;12.44;100.00
42587;BME280;28216;53.362;-6.288;2023-05-03T05:28:13;102149.63;;;12.44;100.00
42587;BME280;28216;53.362;-6.288;2023-05-03T05:30:39;102155.03;;;12.52;100.00
42587;BME280;28216;53.362;-6.288;2023-05-03T05:33:05;102156.56;;;12.45;100.00
42587;BME280;28216;53.362;-6.288;2023-05-03T05:35:31;102156.41;;;12.47;100.00
42587;BME280;28216;53.362;-6.288;2023-05-03T05:37:59;102165.41;;;12.44;100.00
42587;BME280;28216;53.362;-6.288;2023-05-03T05:40:25;102160.97;;;12.54;100.00
42587;BME280;28216;53.362;-6.288;2023-05-03T05:42:50;102161.13;;;12.43;100.00
42587;BME280;28216;53.362;-6.288;2023-05-03T05:45:18;102174.69;;;12.38;100.00
42587;BME280;28216;53.362;-6.288;2023-05-03T05:47:46;102173.44;;;12.62;100.00
42587;BME280;28216;53.362;-6.288;2023-05-03T05:50:11;102173.06;;;12.66;100.00
42587;BME280;28216;53.362;-6.288;2023-05-03T05:52:37;102180.97;;;12.86;100.00
42587;BME280;28216;53.362;-6.288;2023-05-03T05:55:12;102184.56;;;12.85;100.00
42587;BME280;28216;53.362;-6.288;2023-05-03T05:57:46;102174.72;;;12.87;100.00
42587;BME280;28216;53.362;-6.288;2023-05-03T06:00:12;102180.66;;;12.98;100.00
42587;BME280;28216;53.362;-6.288;2023-05-03T06:02:41;102183.97;;;13.10;100.00
42587;BME280;28216;53.362;-6.288;2023-05-03T06:05:08;102178.28;;;13.15;100.00
42587;BME280;28216;53.362;-6.288;2023-05-03T06:07:34;102180.91;;;13.15;100.00
42587;BME280;28216;53.362;-6.288;2023-05-03T06:09:59;102181.47;;;13.09;100.00
42587;BME280;28216;53.362;-6.288;2023-05-03T06:12:25;102179.00;;;13.17;100.00
42587;BME280;28216;53.362;-6.288;2023-05-03T06:14:51;102178.72;;;13.20;100.00
42587;BME280;28216;53.362;-6.288;2023-05-03T06:17:16;102183.44;;;13.26;100.00
42587;BME280;28216;53.362;-6.288;2023-05-03T06:19:42;102180.38;;;13.21;100.00
42587;BME280;28216;53.362;-6.288;2023-05-03T06:22:07;102175.13;;;13.21;100.00
42587;BME280;28216;53.362;-6.288;2023-05-03T06:24:33;102171.09;;;13.07;100.00
42587;BME280;28216;53.362;-6.288;2023-05-03T06:26:58;102172.22;;;13.04;100.00
42587;BME280;28216;53.362;-6.288;2023-05-03T06:29:25;102167.50;;;13.08;100.00
42587;BME280;28216;53.362;-6.288;2023-05-03T06:31:51;102179.81;;;13.08;100.00
42587;BME280;28216;53.362;-6.288;2023-05-03T06:34:20;102168.19;;;13.20;100.00
42587;BME280;28216;53.362;-6.288;2023-05-03T06:36:49;102155.81;;;13.30;100.00
42587;BME280;28216;53.362;-6.288;2023-05-03T06:39:17;102165.38;;;13.31;100.00
42587;BME280;28216;53.362;-6.288;2023-05-03T06:41:48;102164.00;;;13.36;100.00
42587;BME280;28216;53.362;-6.288;2023-05-03T06:44:13;102157.34;;;13.42;100.00
42587;BME280;28216;53.362;-6.288;2023-05-03T06:46:39;102157.03;;;13.55;100.00
42587;BME280;28216;53.362;-6.288;2023-05-03T06:49:04;102160.59;;;13.63;100.00
42587;BME280;28216;53.362;-6.288;2023-05-03T06:51:30;102161.28;;;13.65;100.00
42587;BME280;28216;53.362;-6.288;2023-05-03T06:53:58;102161.19;;;13.85;100.00
42587;BME280;28216;53.362;-6.288;2023-05-03T06:56:31;102158.84;;;13.82;100.00
42587;BME280;28216;53.362;-6.288;2023-05-03T06:58:57;102165.81;;;14.00;100.00
42587;BME280;28216;53.362;-6.288;2023-05-03T07:01:22;102160.50;;;14.10;100.00
42587;BME280;28216;53.362;-6.288;2023-05-03T07:03:48;102154.84;;;14.05;100.00
42587;BME280;28216;53.362;-6.288;2023-05-03T07:12:38;102161.31;;;14.11;100.00
42587;BME280;28216;53.362;-6.288;2023-05-03T07:15:04;102166.56;;;14.20;100.00
42587;BME280;28216;53.362;-6.288;2023-05-03T07:17:29;102163.53;;;13.88;100.00
42587;BME280;28216;53.362;-6.288;2023-05-03T07:19:56;102167.19;;;13.77;100.00
42587;BME280;28216;53.362;-6.288;2023-05-03T07:22:22;102163.03;;;14.02;100.00
42587;BME280;28216;53.362;-6.288;2023-05-03T07:24:51;102162.16;;;14.11;100.00
42587;BME280;28216;53.362;-6.288;2023-05-03T07:27:19;102161.31;;;14.11;100.00
42587;BME280;28216;53.362;-6.288;2023-05-03T07:29:45;102166.84;;;13.90;100.00
42587;BME280;28216;53.362;-6.288;2023-05-03T07:35:32;102165.28;;;14.24;100.00
42587;BME280;28216;53.362;-6.288;2023-05-03T07:37:57;102160.00;;;14.24;100.00
42587;BME280;28216;53.362;-6.288;2023-05-03T07:40:23;102163.03;;;14.29;100.00
42587;BME280;28216;53.362;-6.288;2023-05-03T07:42:48;102159.94;;;14.16;100.00
42587;BME280;28216;53.362;-6.288;2023-05-03T07:45:14;102155.19;;;14.20;100.00
42587;BME280;28216;53.362;-6.288;2023-05-03T07:47:39;102151.13;;;13.98;100.00
42587;BME280;28216;53.362;-6.288;2023-05-03T07:50:07;102156.44;;;13.88;100.00
42587;BME280;28216;53.362;-6.288;2023-05-03T07:58:59;102149.75;;;13.94;100.00
42587;BME280;28216;53.362;-6.288;2023-05-03T08:01:25;102153.03;;;14.06;100.00
42587;BME280;28216;53.362;-6.288;2023-05-03T08:03:51;102152.34;;;14.04;100.00
42587;BME280;28216;53.362;-6.288;2023-05-03T08:06:17;102158.00;;;14.09;100.00
42587;BME280;28216;53.362;-6.288;2023-05-03T08:08:43;102160.94;;;14.06;100.00
42587;BME280;28216;53.362;-6.288;2023-05-03T08:11:09;102158.41;;;14.14;100.00
42587;BME280;28216;53.362;-6.288;2023-05-03T08:13:35;102156.69;;;14.22;100.00
42587;BME280;28216;53.362;-6.288;2023-05-03T08:16:01;102165.97;;;14.26;100.00
42587;BME280;28216;53.362;-6.288;2023-05-03T08:18:27;102157.16;;;14.36;100.00
42587;BME280;28216;53.362;-6.288;2023-05-03T08:20:52;102161.44;;;14.19;100.00
42587;BME280;28216;53.362;-6.288;2023-05-03T08:23:18;102149.09;;;14.19;100.00
42587;BME280;28216;53.362;-6.288;2023-05-03T08:25:44;102146.63;;;14.08;100.00
42587;BME280;28216;53.362;-6.288;2023-05-03T08:28:10;102159.41;;;14.13;100.00
42587;BME280;28216;53.362;-6.288;2023-05-03T08:30:35;102154.94;;;14.13;100.00
42587;BME280;28216;53.362;-6.288;2023-05-03T08:33:01;102148.25;;;14.19;100.00
42587;BME280;28216;53.362;-6.288;2023-05-03T08:35:26;102151.50;;;14.30;100.00
42587;BME280;28216;53.362;-6.288;2023-05-03T08:37:52;102148.22;;;14.46;100.00
42587;BME280;28216;53.362;-6.288;2023-05-03T08:40:20;102154.16;;;14.66;100.00
42587;BME280;28216;53.362;-6.288;2023-05-03T08:42:46;102152.00;;;14.61;100.00
42587;BME280;28216;53.362;-6.288;2023-05-03T08:45:14;102147.00;;;14.76;100.00
42587;BME280;28216;53.362;-6.288;2023-05-03T08:47:41;102152.59;;;14.91;100.00
42587;BME280;28216;53.362;-6.288;2023-05-03T08:50:15;102145.81;;;15.14;100.00
42587;BME280;28216;53.362;-6.288;2023-05-03T08:52:41;102144.09;;;15.31;100.00
42587;BME280;28216;53.362;-6.288;2023-05-03T08:55:08;102137.00;;;15.32;100.00
42587;BME280;28216;53.362;-6.288;2023-05-03T08:57:34;102133.78;;;15.46;100.00
42587;BME280;28216;53.362;-6.288;2023-05-03T09:00:00;102140.69;;;15.65;100.00
42587;BME280;28216;53.362;-6.288;2023-05-03T09:02:27;102147.00;;;15.46;100.00
42587;BME280;28216;53.362;-6.288;2023-05-03T09:04:55;102126.72;;;15.80;100.00
42587;BME280;28216;53.362;-6.288;2023-05-03T09:07:21;102134.00;;;15.86;100.00
42587;BME280;28216;53.362;-6.288;2023-05-03T09:09:47;102128.38;;;15.81;100.00
42587;BME280;28216;53.362;-6.288;2023-05-03T09:12:32;102127.41;;;15.91;100.00
42587;BME280;28216;53.362;-6.288;2023-05-03T09:14:58;102134.16;;;15.85;100.00
42587;BME280;28216;53.362;-6.288;2023-05-03T09:17:25;102130.44;;;15.62;100.00
42587;BME280;28216;53.362;-6.288;2023-05-03T09:19:59;102132.09;;;15.63;100.00
42587;BME280;28216;53.362;-6.288;2023-05-03T09:22:27;102126.06;;;15.86;100.00
42587;BME280;28216;53.362;-6.288;2023-05-03T09:24:55;102115.28;;;15.72;100.00
42587;BME280;28216;53.362;-6.288;2023-05-03T09:27:22;102120.28;;;15.83;100.00
42587;BME280;28216;53.362;-6.288;2023-05-03T09:29:48;102115.47;;;15.78;100.00
42587;BME280;28216;53.362;-6.288;2023-05-03T09:32:15;102117.75;;;15.73;100.00
42587;BME280;28216;53.362;-6.288;2023-05-03T09:34:42;102119.91;;;15.70;100.00
42587;BME280;28216;53.362;-6.288;2023-05-03T09:37:07;102116.00;;;15.90;100.00
42587;BME280;28216;53.362;-6.288;2023-05-03T09:39:33;102115.50;;;15.86;100.00
42587;BME280;28216;53.362;-6.288;2023-05-03T09:42:17;102110.50;;;15.83;100.00
42587;BME280;28216;53.362;-6.288;2023-05-03T09:44:45;102103.09;;;15.95;100.00
42587;BME280;28216;53.362;-6.288;2023-05-03T09:47:13;102096.66;;;15.89;100.00
42587;BME280;28216;53.362;-6.288;2023-05-03T09:49:39;102097.00;;;15.95;100.00
42587;BME280;28216;53.362;-6.288;2023-05-03T09:52:06;102089.41;;;16.00;100.00
42587;BME280;28216;53.362;-6.288;2023-05-03T09:54:33;102088.25;;;16.02;100.00
42587;BME280;28216;53.362;-6.288;2023-05-03T09:57:00;102086.50;;;15.69;100.00
42587;BME280;28216;53.362;-6.288;2023-05-03T09:59:27;102077.56;;;15.62;100.00
42587;BME280;28216;53.362;-6.288;2023-05-03T10:01:55;102094.75;;;15.66;100.00
42587;BME280;28216;53.362;-6.288;2023-05-03T10:04:25;102105.50;;;15.38;100.00
42587;BME280;28216;53.362;-6.288;2023-05-03T10:06:55;102108.41;;;15.27;100.00
42587;BME280;28216;53.362;-6.288;2023-05-03T10:09:44;102101.72;;;15.49;100.00
42587;BME280;28216;53.362;-6.288;2023-05-03T10:12:09;102115.75;;;15.67;100.00
42587;BME280;28216;53.362;-6.288;2023-05-03T10:14:39;102107.88;;;15.83;100.00
42587;BME280;28216;53.362;-6.288;2023-05-03T10:17:10;102107.44;;;16.04;100.00
42587;BME280;28216;53.362;-6.288;2023-05-03T10:19:40;102120.19;;;16.25;100.00
42587;BME280;28216;53.362;-6.288;2023-05-03T10:22:10;102126.69;;;16.47;100.00
42587;BME280;28216;53.362;-6.288;2023-05-03T10:24:37;102126.66;;;16.31;100.00
42587;BME280;28216;53.362;-6.288;2023-05-03T10:27:22;102113.63;;;16.62;100.00
42587;BME280;28216;53.362;-6.288;2023-05-03T10:29:49;102129.69;;;16.84;100.00
42587;BME280;28216;53.362;-6.288;2023-05-03T10:32:32;102121.50;;;16.21;100.00
42587;BME280;28216;53.362;-6.288;2023-05-03T10:35:12;102113.13;;;16.58;100.00
42587;BME280;28216;53.362;-6.288;2023-05-03T10:37:40;102119.59;;;16.88;100.00
42587;BME280;28216;53.362;-6.288;2023-05-03T10:40:10;102112.81;;;16.77;100.00
42587;BME280;28216;53.362;-6.288;2023-05-03T10:42:37;102111.47;;;16.57;100.00
42587;BME280;28216;53.362;-6.288;2023-05-03T10:45:03;102109.16;;;17.03;100.00
42587;BME280;28216;53.362;-6.288;2023-05-03T10:47:31;102112.66;;;16.71;100.00
42587;BME280;28216;53.362;-6.288;2023-05-03T10:55:20;102109.00;;;16.96;100.00
42587;BME280;28216;53.362;-6.288;2023-05-03T10:57:46;102096.75;;;16.87;100.00
42587;BME280;28216;53.362;-6.288;2023-05-03T11:00:15;102097.09;;;16.84;100.00
42587;BME280;28216;53.362;-6.288;2023-05-03T11:05:35;102086.44;;;17.08;100.00
42587;BME280;28216;53.362;-6.288;2023-05-03T11:08:19;102101.38;;;16.93;100.00
42587;BME280;28216;53.362;-6.288;2023-05-03T11:10:46;102096.91;;;16.94;100.00
42587;BME280;28216;53.362;-6.288;2023-05-03T11:13:12;102094.94;;;16.55;100.00
42587;BME280;28216;53.362;-6.288;2023-05-03T11:15:38;102095.44;;;16.50;100.00
42587;BME280;28216;53.362;-6.288;2023-05-03T11:18:09;102102.38;;;16.43;100.00
42587;BME280;28216;53.362;-6.288;2023-05-03T11:20:36;102092.28;;;16.47;100.00
42587;BME280;28216;53.362;-6.288;2023-05-03T11:23:02;102081.66;;;16.14;100.00
42587;BME280;28216;53.362;-6.288;2023-05-03T11:25:28;102082.53;;;16.47;100.00
42587;BME280;28216;53.362;-6.288;2023-05-03T11:27:54;102081.22;;;16.68;100.00
42587;BME280;28216;53.362;-6.288;2023-05-03T11:30:19;102076.41;;;16.71;100.00
42587;BME280;28216;53.362;-6.288;2023-05-03T11:32:46;102069.63;;;16.69;100.00
42587;BME280;28216;53.362;-6.288;2023-05-03T11:35:12;102068.75;;;16.28;100.00
42587;BME280;28216;53.362;-6.288;2023-05-03T11:37:38;102064.66;;;16.58;100.00
42587;BME280;28216;53.362;-6.288;2023-05-03T11:40:05;102066.63;;;16.56;100.00
42587;BME280;28216;53.362;-6.288;2023-05-03T11:42:32;102071.44;;;16.44;100.00
42587;BME280;28216;53.362;-6.288;2023-05-03T11:44:59;102071.59;;;16.59;100.00
42587;BME280;28216;53.362;-6.288;2023-05-03T11:47:25;102064.47;;;16.83;100.00
42587;BME280;28216;53.362;-6.288;2023-05-03T11:49:55;102067.06;;;17.08;100.00
42587;BME280;28216;53.362;-6.288;2023-05-03T11:52:25;102063.13;;;16.96;100.00
42587;BME280;28216;53.362;-6.288;2023-05-03T11:54:51;102072.75;;;16.48;100.00
42587;BME280;28216;53.362;-6.288;2023-05-03T11:57:17;102074.88;;;16.93;100.00
42587;BME280;28216;53.362;-6.288;2023-05-03T11:59:43;102058.13;;;17.09;100.00
42587;BME280;28216;53.362;-6.288;2023-05-03T12:02:12;102065.16;;;16.77;100.00
42587;BME280;28216;53.362;-6.288;2023-05-03T12:04:39;102060.44;;;17.20;100.00
42587;BME280;28216;53.362;-6.288;2023-05-03T12:07:07;102066.13;;;16.60;100.00
42587;BME280;28216;53.362;-6.288;2023-05-03T12:09:33;102048.56;;;16.92;100.00
42587;BME280;28216;53.362;-6.288;2023-05-03T12:12:00;102060.34;;;16.57;100.00
42587;BME280;28216;53.362;-6.288;2023-05-03T12:14:26;102053.88;;;16.59;100.00
42587;BME280;28216;53.362;-6.288;2023-05-03T12:16:53;102049.91;;;16.79;100.00
42587;BME280;28216;53.362;-6.288;2023-05-03T12:19:26;102047.13;;;16.73;100.00
42587;BME280;28216;53.362;-6.288;2023-05-03T12:21:52;102045.28;;;16.73;100.00
42587;BME280;28216;53.362;-6.288;2023-05-03T12:24:18;102039.00;;;16.42;100.00
42587;BME280;28216;53.362;-6.288;2023-05-03T12:26:44;102039.63;;;16.84;100.00
42587;BME280;28216;53.362;-6.288;2023-05-03T12:29:10;102044.25;;;16.91;100.00
42587;BME280;28216;53.362;-6.288;2023-05-03T12:31:36;102036.34;;;16.82;100.00
42587;BME280;28216;53.362;-6.288;2023-05-03T12:34:02;102038.91;;;17.07;100.00
42587;BME280;28216;53.362;-6.288;2023-05-03T12:36:31;102035.63;;;16.97;100.00
42587;BME280;28216;53.362;-6.288;2023-05-03T12:39:01;102045.06;;;16.99;100.00
42587;BME280;28216;53.362;-6.288;2023-05-03T12:41:29;102035.97;;;16.94;100.00
42587;BME280;28216;53.362;-6.288;2023-05-03T12:43:59;102035.34;;;16.75;100.00
42587;BME280;28216;53.362;-6.288;2023-05-03T12:46:26;102024.34;;;17.11;100.00
42587;BME280;28216;53.362;-6.288;2023-05-03T12:48:52;102018.75;;;16.98;100.00
42587;BME280;28216;53.362;-6.288;2023-05-03T12:51:18;102014.75;;;17.02;100.00
42587;BME280;28216;53.362;-6.288;2023-05-03T12:53:44;102018.63;;;17.30;100.00
42587;BME280;28216;53.362;-6.288;2023-05-03T12:56:10;102017.88;;;17.13;100.00
42587;BME280;28216;53.362;-6.288;2023-05-03T12:58:36;102028.81;;;17.10;100.00